sensor_id;sensor_type;location;lat;lon;timestamp;P1;durP1;ratioP1;P2;durP2;ratioP2
34900;SDS011;21112;51.976;5.660;2023-04-01T00:04:02;3.13;;;1.30;;
34900;SDS011;21112;51.976;5.660;2023-04-01T00:06:32;3.25;;;1.20;;
34900;SDS011;21112;51.976;5.660;2023-04-01T00:08:58;2.15;;;1.20;;
34900;SDS011;21112;51.976;5.660;2023-04-01T00:11:26;3.65;;;1.40;;
34900;SDS011;21112;51.976;5.660;2023-04-01T00:13:58;4.43;;;1.70;;
34900;SDS011;21112;51.976;5.660;2023-04-01T00:16:28;4.47;;;1.20;;
34900;SDS011;21112;51.976;5.660;2023-04-01T00:18:54;2.90;;;1.33;;
34900;SDS011;21112;51.976;5.660;2023-04-01T00:21:21;3.35;;;1.35;;
34900;SDS011;21112;51.976;5.660;2023-04-01T00:23:48;2.95;;;1.30;;
34900;SDS011;21112;51.976;5.660;2023-04-01T00:26:15;2.85;;;1.38;;
34900;SDS011;21112;51.976;5.660;2023-04-01T00:28:44;2.90;;;1.17;;
34900;SDS011;21112;51.976;5.660;2023-04-01T00:31:12;3.63;;;1.50;;
34900;SDS011;21112;51.976;5.660;2023-04-01T00:33:39;4.47;;;1.52;;
34900;SDS011;21112;51.976;5.660;2023-04-01T00:36:06;3.53;;;1.50;;
34900;SDS011;21112;51.976;5.660;2023-04-01T00:38:33;4.33;;;1.60;;
34900;SDS011;21112;51.976;5.660;2023-04-01T00:40:59;6.60;;;1.50;;
34900;SDS011;21112;51.976;5.660;2023-04-01T00:43:26;3.50;;;1.58;;
34900;SDS011;21112;51.976;5.660;2023-04-01T00:45:52;2.92;;;1.60;;
34900;SDS011;21112;51.976;5.660;2023-04-01T00:48:21;5.40;;;1.50;;
34900;SDS011;21112;51.976;5.660;2023-04-01T00:50:49;4.03;;;1.70;;
34900;SDS011;21112;51.976;5.660;2023-04-01T00:53:16;3.13;;;1.45;;
34900;SDS011;21112;51.976;5.660;2023-04-01T00:55:45;7.38;;;2.38;;
34900;SDS011;21112;51.976;5.660;2023-04-01T00:58:16;4.60;;;1.88;;
34900;SDS011;21112;51.976;5.660;2023-04-01T01:00:43;3.72;;;1.73;;
34900;SDS011;21112;51.976;5.660;2023-04-01T01:03:10;4.95;;;2.13;;
34900;SDS011;21112;51.976;5.660;2023-04-01T01:05:42;4.32;;;1.92;;
34900;SDS011;21112;51.976;5.660;2023-04-01T01:08:15;3.53;;;1.98;;
34900;SDS011;21112;51.976;5.660;2023-04-01T01:10:44;3.95;;;1.92;;
34900;SDS011;21112;51.976;5.660;2023-04-01T01:13:16;6.25;;;2.20;;
34900;SDS011;21112;51.976;5.660;2023-04-01T01:15:44;5.82;;;2.15;;
34900;SDS011;21112;51.976;5.660;2023-04-01T01:29:08;5.07;;;2.10;;
34900;SDS011;21112;51.976;5.660;2023-04-01T01:31:41;5.95;;;2.30;;
34900;SDS011;21112;51.976;5.660;2023-04-01T01:34:12;5.65;;;2.33;;
34900;SDS011;21112;51.976;5.660;2023-04-01T01:36:42;6.78;;;2.17;;
34900;SDS011;21112;51.976;5.660;2023-04-01T01:39:19;8.38;;;2.85;;
34900;SDS011;21112;51.976;5.660;2023-04-01T01:41:51;6.95;;;2.20;;
34900;SDS011;21112;51.976;5.660;2023-04-01T01:44:18;7.25;;;2.38;;
34900;SDS011;21112;51.976;5.660;2023-04-01T01:46:45;8.77;;;2.80;;
34900;SDS011;21112;51.976;5.660;2023-04-01T01:49:13;9.43;;;2.35;;
34900;SDS011;21112;51.976;5.660;2023-04-01T01:51:42;9.77;;;2.30;;
34900;SDS011;21112;51.976;5.660;2023-04-01T01:54:11;5.60;;;2.28;;
34900;SDS011;21112;51.976;5.660;2023-04-01T01:59:05;6.03;;;1.90;;
34900;SDS011;21112;51.976;5.660;2023-04-01T02:01:35;6.97;;;2.50;;
34900;SDS011;21112;51.976;5.660;2023-04-01T02:04:03;5.70;;;2.35;;
34900;SDS011;21112;51.976;5.660;2023-04-01T02:06:30;8.68;;;2.67;;
34900;SDS011;21112;51.976;5.660;2023-04-01T02:09:00;7.20;;;2.92;;
34900;SDS011;21112;51.976;5.660;2023-04-01T02:11:29;7.80;;;3.10;;
34900;SDS011;21112;51.976;5.660;2023-04-01T02:13:58;7.28;;;3.00;;
34900;SDS011;21112;51.976;5.660;2023-04-01T02:16:28;12.90;;;3.25;;
34900;SDS011;21112;51.976;5.660;2023-04-01T02:18:55;10.18;;;2.83;;
34900;SDS011;21112;51.976;5.660;2023-04-01T02:21:24;7.25;;;2.78;;
34900;SDS011;21112;51.976;5.660;2023-04-01T02:23:51;8.17;;;2.87;;
34900;SDS011;21112;51.976;5.660;2023-04-01T02:26:21;10.52;;;3.10;;
34900;SDS011;21112;51.976;5.660;2023-04-01T02:28:48;6.78;;;2.33;;
34900;SDS011;21112;51.976;5.660;2023-04-01T02:31:16;8.03;;;2.47;;
34900;SDS011;21112;51.976;5.660;2023-04-01T02:33:43;8.15;;;2.72;;
34900;SDS011;21112;51.976;5.660;2023-04-01T02:36:11;6.93;;;2.85;;
34900;SDS011;21112;51.976;5.660;2023-04-01T02:38:38;11.48;;;2.92;;
34900;SDS011;21112;51.976;5.660;2023-04-01T02:41:05;7.05;;;2.50;;
34900;SDS011;21112;51.976;5.660;2023-04-01T02:43:33;8.95;;;2.75;;
34900;SDS011;21112;51.976;5.660;2023-04-01T02:46:00;9.90;;;2.88;;
34900;SDS011;21112;51.976;5.660;2023-04-01T02:48:27;9.10;;;3.35;;
34900;SDS011;21112;51.976;5.660;2023-04-01T02:50:53;7.65;;;2.40;;
34900;SDS011;21112;51.976;5.660;2023-04-01T02:53:23;9.20;;;2.90;;
34900;SDS011;21112;51.976;5.660;2023-04-01T02:55:49;8.05;;;2.30;;
34900;SDS011;21112;51.976;5.660;2023-04-01T02:58:16;9.35;;;2.72;;
34900;SDS011;21112;51.976;5.660;2023-04-01T03:00:44;8.50;;;2.80;;
34900;SDS011;21112;51.976;5.660;2023-04-01T03:03:11;8.00;;;2.45;;
34900;SDS011;21112;51.976;5.660;2023-04-01T03:05:38;11.57;;;2.70;;
34900;SDS011;21112;51.976;5.660;2023-04-01T03:08:05;7.15;;;2.45;;
34900;SDS011;21112;51.976;5.660;2023-04-01T03:10:32;7.28;;;2.55;;
34900;SDS011;21112;51.976;5.660;2023-04-01T03:12:59;7.90;;;2.53;;
34900;SDS011;21112;51.976;5.660;2023-04-01T03:15:25;8.02;;;2.50;;
34900;SDS011;21112;51.976;5.660;2023-04-01T03:17:53;5.60;;;2.10;;
34900;SDS011;21112;51.976;5.660;2023-04-01T03:20:20;7.00;;;2.07;;
34900;SDS011;21112;51.976;5.660;2023-04-01T03:22:46;6.00;;;2.05;;
34900;SDS011;21112;51.976;5.660;2023-04-01T03:25:13;5.25;;;2.13;;
34900;SDS011;21112;51.976;5.660;2023-04-01T03:27:40;7.90;;;2.13;;
34900;SDS011;21112;51.976;5.660;2023-04-01T03:30:06;6.57;;;2.10;;
34900;SDS011;21112;51.976;5.660;2023-04-01T03:32:33;6.82;;;2.10;;
34900;SDS011;21112;51.976;5.660;2023-04-01T03:35:01;5.90;;;1.70;;
34900;SDS011;21112;51.976;5.660;2023-04-01T03:37:27;7.43;;;2.30;;
34900;SDS011;21112;51.976;5.660;2023-04-01T03:39:54;6.38;;;2.17;;
34900;SDS011;21112;51.976;5.660;2023-04-01T03:42:20;5.47;;;1.90;;
34900;SDS011;21112;51.976;5.660;2023-04-01T03:44:47;6.80;;;2.03;;
34900;SDS011;21112;51.976;5.660;2023-04-01T03:47:13;5.45;;;1.73;;
34900;SDS011;21112;51.976;5.660;2023-04-01T03:49:40;5.85;;;1.90;;
34900;SDS011;21112;51.976;5.660;2023-04-01T03:52:10;8.45;;;2.17;;
34900;SDS011;21112;51.976;5.660;2023-04-01T03:54:39;5.57;;;1.77;;
34900;SDS011;21112;51.976;5.660;2023-04-01T03:57:05;4.32;;;1.80;;
34900;SDS011;21112;51.976;5.660;2023-04-01T03:59:32;8.90;;;2.47;;
34900;SDS011;21112;51.976;5.660;2023-04-01T04:01:58;7.60;;;2.08;;
34900;SDS011;21112;51.976;5.660;2023-04-01T04:04:25;3.55;;;1.77;;
34900;SDS011;21112;51.976;5.660;2023-04-01T04:06:51;8.75;;;2.30;;
34900;SDS011;21112;51.976;5.660;2023-04-01T04:09:19;4.82;;;1.80;;
34900;SDS011;21112;51.976;5.660;2023-04-01T04:11:46;9.10;;;1.98;;
34900;SDS011;21112;51.976;5.660;2023-04-01T04:14:13;4.75;;;2.03;;
34900;SDS011;21112;51.976;5.660;2023-04-01T04:16:39;7.35;;;1.83;;
34900;SDS011;21112;51.976;5.660;2023-04-01T04:19:06;6.25;;;1.70;;
34900;SDS011;21112;51.976;5.660;2023-04-01T04:21:32;6.22;;;2.00;;
34900;SDS011;21112;51.976;5.660;2023-04-01T04:23:59;5.50;;;2.15;;
34900;SDS011;21112;51.976;5.660;2023-04-01T04:26:26;7.22;;;2.00;;
34900;SDS011;21112;51.976;5.660;2023-04-01T04:28:53;4.13;;;1.93;;
34900;SDS011;21112;51.976;5.660;2023-04-01T04:31:20;5.53;;;2.10;;
34900;SDS011;21112;51.976;5.660;2023-04-01T04:33:48;4.95;;;2.13;;
34900;SDS011;21112;51.976;5.660;2023-04-01T04:36:15;4.10;;;2.08;;
34900;SDS011;21112;51.976;5.660;2023-04-01T04:38:41;5.43;;;2.40;;
34900;SDS011;21112;51.976;5.660;2023-04-01T04:41:08;4.13;;;2.08;;
34900;SDS011;21112;51.976;5.660;2023-04-01T04:43:36;5.55;;;2.55;;
34900;SDS011;21112;51.976;5.660;2023-04-01T04:46:04;5.93;;;2.17;;
34900;SDS011;21112;51.976;5.660;2023-04-01T04:48:30;4.57;;;2.30;;
34900;SDS011;21112;51.976;5.660;2023-04-01T04:50:57;5.65;;;2.20;;
34900;SDS011;21112;51.976;5.660;2023-04-01T04:53:23;6.50;;;2.50;;
34900;SDS011;21112;51.976;5.660;2023-04-01T04:55:50;6.72;;;2.10;;
34900;SDS011;21112;51.976;5.660;2023-04-01T04:58:17;5.25;;;2.40;;
34900;SDS011;21112;51.976;5.660;2023-04-01T05:00:45;6.65;;;2.38;;
34900;SDS011;21112;51.976;5.660;2023-04-01T05:03:12;6.20;;;2.60;;
34900;SDS011;21112;51.976;5.660;2023-04-01T05:05:48;5.72;;;2.47;;
34900;SDS011;21112;51.976;5.660;2023-04-01T05:08:14;6.53;;;2.47;;
34900;SDS011;21112;51.976;5.660;2023-04-01T05:10:41;6.15;;;2.80;;
34900;SDS011;21112;51.976;5.660;2023-04-01T05:13:07;6.15;;;2.67;;
34900;SDS011;21112;51.976;5.660;2023-04-01T05:15:34;6.05;;;2.50;;
34900;SDS011;21112;51.976;5.660;2023-04-01T05:18:03;5.13;;;2.35;;
34900;SDS011;21112;51.976;5.660;2023-04-01T05:20:30;3.95;;;2.25;;
34900;SDS011;21112;51.976;5.660;2023-04-01T05:22:59;5.88;;;2.40;;
34900;SDS011;21112;51.976;5.660;2023-04-01T05:25:26;4.28;;;2.17;;
34900;SDS011;21112;51.976;5.660;2023-04-01T05:27:53;6.40;;;2.80;;
34900;SDS011;21112;51.976;5.660;2023-04-01T05:30:21;5.70;;;2.55;;
34900;SDS011;21112;51.976;5.660;2023-04-01T05:32:48;7.15;;;2.85;;
34900;SDS011;21112;51.976;5.660;2023-04-01T05:35:16;5.78;;;2.72;;
34900;SDS011;21112;51.976;5.660;2023-04-01T05:37:45;6.20;;;2.83;;
34900;SDS011;21112;51.976;5.660;2023-04-01T05:40:11;6.68;;;2.92;;
34900;SDS011;21112;51.976;5.660;2023-04-01T05:42:38;6.15;;;2.83;;
34900;SDS011;21112;51.976;5.660;2023-04-01T05:45:05;6.68;;;3.05;;
34900;SDS011;21112;51.976;5.660;2023-04-01T05:47:37;5.80;;;2.42;;
34900;SDS011;21112;51.976;5.660;2023-04-01T05:50:07;6.43;;;2.80;;
34900;SDS011;21112;51.976;5.660;2023-04-01T05:52:35;7.72;;;2.85;;
34900;SDS011;21112;51.976;5.660;2023-04-01T05:55:02;6.72;;;3.13;;
34900;SDS011;21112;51.976;5.660;2023-04-01T05:57:34;5.72;;;2.75;;
34900;SDS011;21112;51.976;5.660;2023-04-01T06:00:01;9.95;;;2.65;;
34900;SDS011;21112;51.976;5.660;2023-04-01T06:02:28;6.88;;;3.00;;
34900;SDS011;21112;51.976;5.660;2023-04-01T06:04:59;5.82;;;2.35;;
34900;SDS011;21112;51.976;5.660;2023-04-01T06:07:32;6.80;;;2.90;;
34900;SDS011;21112;51.976;5.660;2023-04-01T06:10:05;6.22;;;2.40;;
34900;SDS011;21112;51.976;5.660;2023-04-01T06:12:38;7.22;;;2.70;;
34900;SDS011;21112;51.976;5.660;2023-04-01T06:15:13;5.35;;;2.53;;
34900;SDS011;21112;51.976;5.660;2023-04-01T06:17:49;6.22;;;2.30;;
34900;SDS011;21112;51.976;5.660;2023-04-01T06:20:20;5.85;;;2.10;;
34900;SDS011;21112;51.976;5.660;2023-04-01T06:22:56;5.43;;;2.55;;
34900;SDS011;21112;51.976;5.660;2023-04-01T06:25:33;4.22;;;2.00;;
34900;SDS011;21112;51.976;5.660;2023-04-01T06:28:04;4.70;;;2.25;;
34900;SDS011;21112;51.976;5.660;2023-04-01T06:30:35;5.88;;;2.08;;
34900;SDS011;21112;51.976;5.660;2023-04-01T06:33:07;5.43;;;2.05;;
34900;SDS011;21112;51.976;5.660;2023-04-01T06:35:50;4.97;;;2.15;;
34900;SDS011;21112;51.976;5.660;2023-04-01T06:38:27;5.32;;;2.20;;
34900;SDS011;21112;51.976;5.660;2023-04-01T06:43:55;3.97;;;1.65;;
34900;SDS011;21112;51.976;5.660;2023-04-01T06:46:27;4.07;;;1.77;;
34900;SDS011;21112;51.976;5.660;2023-04-01T06:49:02;3.92;;;1.67;;
34900;SDS011;21112;51.976;5.660;2023-04-01T06:51:33;4.93;;;2.05;;
34900;SDS011;21112;51.976;5.660;2023-04-01T06:54:03;4.57;;;1.83;;
34900;SDS011;21112;51.976;5.660;2023-04-01T06:56:31;4.10;;;1.75;;
34900;SDS011;21112;51.976;5.660;2023-04-01T06:59:02;3.22;;;1.48;;
34900;SDS011;21112;51.976;5.660;2023-04-01T07:01:32;4.38;;;1.98;;
34900;SDS011;21112;51.976;5.660;2023-04-01T07:04:02;3.40;;;1.67;;
34900;SDS011;21112;51.976;5.660;2023-04-01T07:06:31;4.18;;;1.85;;
34900;SDS011;21112;51.976;5.660;2023-04-01T07:09:05;4.43;;;1.80;;
34900;SDS011;21112;51.976;5.660;2023-04-01T07:11:35;4.57;;;1.60;;
34900;SDS011;21112;51.976;5.660;2023-04-01T07:14:10;4.03;;;1.52;;
34900;SDS011;21112;51.976;5.660;2023-04-01T07:16:43;3.17;;;1.50;;
34900;SDS011;21112;51.976;5.660;2023-04-01T07:19:12;4.55;;;1.70;;
34900;SDS011;21112;51.976;5.660;2023-04-01T07:21:41;5.35;;;1.90;;
34900;SDS011;21112;51.976;5.660;2023-04-01T07:24:11;4.00;;;1.90;;
34900;SDS011;21112;51.976;5.660;2023-04-01T07:26:40;4.00;;;1.48;;
34900;SDS011;21112;51.976;5.660;2023-04-01T07:29:12;3.50;;;1.50;;
34900;SDS011;21112;51.976;5.660;2023-04-01T07:31:45;4.45;;;1.80;;
34900;SDS011;21112;51.976;5.660;2023-04-01T07:34:25;4.35;;;1.73;;
34900;SDS011;21112;51.976;5.660;2023-04-01T07:36:53;4.47;;;1.58;;
34900;SDS011;21112;51.976;5.660;2023-04-01T07:39:30;4.30;;;1.98;;
34900;SDS011;21112;51.976;5.660;2023-04-01T07:42:04;5.00;;;1.92;;
34900;SDS011;21112;51.976;5.660;2023-04-01T07:44:34;4.18;;;2.00;;
34900;SDS011;21112;51.976;5.660;2023-04-01T07:49:49;3.63;;;1.70;;
34900;SDS011;21112;51.976;5.660;2023-04-01T07:52:19;2.85;;;1.20;;
34900;SDS011;21112;51.976;5.660;2023-04-01T07:54:51;3.63;;;1.58;;
34900;SDS011;21112;51.976;5.660;2023-04-01T07:57:21;3.22;;;1.50;;
34900;SDS011;21112;51.976;5.660;2023-04-01T07:59:53;5.88;;;1.95;;
34900;SDS011;21112;51.976;5.660;2023-04-01T08:02:32;3.08;;;1.27;;
34900;SDS011;21112;51.976;5.660;2023-04-01T08:05:08;3.33;;;1.50;;
34900;SDS011;21112;51.976;5.660;2023-04-01T08:07:40;3.42;;;1.42;;
34900;SDS011;21112;51.976;5.660;2023-04-01T08:10:11;3.72;;;1.30;;
34900;SDS011;21112;51.976;5.660;2023-04-01T08:12:42;3.00;;;1.40;;
34900;SDS011;21112;51.976;5.660;2023-04-01T08:15:18;4.13;;;1.60;;
34900;SDS011;21112;51.976;5.660;2023-04-01T08:17:49;2.08;;;1.10;;
34900;SDS011;21112;51.976;5.660;2023-04-01T08:20:23;3.00;;;1.40;;
34900;SDS011;21112;51.976;5.660;2023-04-01T08:22:53;4.18;;;1.67;;
34900;SDS011;21112;51.976;5.660;2023-04-01T08:25:24;2.95;;;1.50;;
34900;SDS011;21112;51.976;5.660;2023-04-01T08:27:53;4.43;;;1.58;;
34900;SDS011;21112;51.976;5.660;2023-04-01T08:32:49;4.93;;;1.33;;
34900;SDS011;21112;51.976;5.660;2023-04-01T08:35:20;3.80;;;1.45;;
34900;SDS011;21112;51.976;5.660;2023-04-01T08:37:49;4.70;;;1.80;;
34900;SDS011;21112;51.976;5.660;2023-04-01T08:40:32;3.35;;;1.45;;
34900;SDS011;21112;51.976;5.660;2023-04-01T08:43:03;4.38;;;1.58;;
34900;SDS011;21112;51.976;5.660;2023-04-01T08:45:40;3.50;;;1.60;;
34900;SDS011;21112;51.976;5.660;2023-04-01T08:48:19;5.25;;;1.40;;
34900;SDS011;21112;51.976;5.660;2023-04-01T08:50:57;4.95;;;1.55;;
34900;SDS011;21112;51.976;5.660;2023-04-01T08:53:28;4.47;;;1.80;;
34900;SDS011;21112;51.976;5.660;2023-04-01T08:56:03;3.38;;;1.40;;
34900;SDS011;21112;51.976;5.660;2023-04-01T08:58:47;4.60;;;1.75;;
34900;SDS011;21112;51.976;5.660;2023-04-01T09:01:22;2.97;;;1.45;;
34900;SDS011;21112;51.976;5.660;2023-04-01T09:03:58;3.22;;;1.58;;
34900;SDS011;21112;51.976;5.660;2023-04-01T09:06:31;3.67;;;1.38;;
34900;SDS011;21112;51.976;5.660;2023-04-01T09:09:06;4.10;;;1.38;;
34900;SDS011;21112;51.976;5.660;2023-04-01T09:11:44;3.50;;;1.45;;
34900;SDS011;21112;51.976;5.660;2023-04-01T09:14:33;2.97;;;1.30;;
34900;SDS011;21112;51.976;5.660;2023-04-01T09:20:13;4.07;;;1.67;;
34900;SDS011;21112;51.976;5.660;2023-04-01T09:22:56;3.03;;;1.35;;
34900;SDS011;21112;51.976;5.660;2023-04-01T09:28:14;4.13;;;1.92;;
34900;SDS011;21112;51.976;5.660;2023-04-01T09:31:06;4.57;;;1.70;;
34900;SDS011;21112;51.976;5.660;2023-04-01T09:36:36;3.45;;;1.85;;
34900;SDS011;21112;51.976;5.660;2023-04-01T09:39:13;3.85;;;1.80;;
34900;SDS011;21112;51.976;5.660;2023-04-01T09:41:51;6.13;;;2.75;;
34900;SDS011;21112;51.976;5.660;2023-04-01T09:52:06;11.40;;;3.25;;
34900;SDS011;21112;51.976;5.660;2023-04-01T09:54:49;11.38;;;2.70;;
34900;SDS011;21112;51.976;5.660;2023-04-01T10:00:20;6.07;;;2.63;;
34900;SDS011;21112;51.976;5.660;2023-04-01T10:02:59;6.78;;;2.78;;
34900;SDS011;21112;51.976;5.660;2023-04-01T10:08:39;6.35;;;2.58;;
34900;SDS011;21112;51.976;5.660;2023-04-01T10:14:04;6.10;;;2.65;;
34900;SDS011;21112;51.976;5.660;2023-04-01T10:16:41;6.57;;;2.80;;
34900;SDS011;21112;51.976;5.660;2023-04-01T10:19:21;5.65;;;2.50;;
34900;SDS011;21112;51.976;5.660;2023-04-01T10:21:55;6.13;;;2.88;;
34900;SDS011;21112;51.976;5.660;2023-04-01T10:24:33;5.30;;;2.72;;
34900;SDS011;21112;51.976;5.660;2023-04-01T10:27:11;6.60;;;2.75;;
34900;SDS011;21112;51.976;5.660;2023-04-01T10:29:47;6.70;;;3.00;;
34900;SDS011;21112;51.976;5.660;2023-04-01T10:35:14;7.40;;;2.83;;
34900;SDS011;21112;51.976;5.660;2023-04-01T10:40:37;6.18;;;2.50;;
34900;SDS011;21112;51.976;5.660;2023-04-01T10:54:30;6.82;;;2.97;;
34900;SDS011;21112;51.976;5.660;2023-04-01T10:57:14;7.93;;;3.05;;
34900;SDS011;21112;51.976;5.660;2023-04-01T11:00:03;6.18;;;2.72;;
34900;SDS011;21112;51.976;5.660;2023-04-01T11:05:46;6.75;;;2.95;;
34900;SDS011;21112;51.976;5.660;2023-04-01T11:19:43;6.35;;;2.58;;
34900;SDS011;21112;51.976;5.660;2023-04-01T11:22:23;6.72;;;3.25;;
34900;SDS011;21112;51.976;5.660;2023-04-01T11:25:11;6.50;;;2.88;;
34900;SDS011;21112;51.976;5.660;2023-04-01T11:28:01;7.45;;;3.28;;
34900;SDS011;21112;51.976;5.660;2023-04-01T11:30:40;6.18;;;2.65;;
34900;SDS011;21112;51.976;5.660;2023-04-01T11:33:08;6.35;;;2.85;;
34900;SDS011;21112;51.976;5.660;2023-04-01T11:41:40;5.47;;;2.40;;
34900;SDS011;21112;51.976;5.660;2023-04-01T11:44:21;6.00;;;2.53;;
34900;SDS011;21112;51.976;5.660;2023-04-01T11:50:02;6.53;;;2.60;;
34900;SDS011;21112;51.976;5.660;2023-04-01T11:53:04;6.63;;;2.58;;
34900;SDS011;21112;51.976;5.660;2023-04-01T12:06:42;4.07;;;2.08;;
34900;SDS011;21112;51.976;5.660;2023-04-01T12:09:16;5.70;;;2.33;;
34900;SDS011;21112;51.976;5.660;2023-04-01T12:12:01;5.43;;;2.53;;
34900;SDS011;21112;51.976;5.660;2023-04-01T12:22:21;5.20;;;2.10;;
34900;SDS011;21112;51.976;5.660;2023-04-01T12:41:11;4.55;;;1.83;;
34900;SDS011;21112;51.976;5.660;2023-04-01T12:46:54;3.88;;;2.10;;
34900;SDS011;21112;51.976;5.660;2023-04-01T12:49:50;4.55;;;1.90;;
34900;SDS011;21112;51.976;5.660;2023-04-01T12:52:37;6.32;;;2.05;;
34900;SDS011;21112;51.976;5.660;2023-04-01T12:55:18;5.00;;;1.88;;
34900;SDS011;21112;51.976;5.660;2023-04-01T13:09:27;4.07;;;1.70;;
34900;SDS011;21112;51.976;5.660;2023-04-01T13:12:17;4.15;;;1.60;;
34900;SDS011;21112;51.976;5.660;2023-04-01T13:19:43;3.03;;;1.57;;
34900;SDS011;21112;51.976;5.660;2023-04-01T13:22:16;3.10;;;1.58;;
34900;SDS011;21112;51.976;5.660;2023-04-01T13:40:43;4.05;;;1.60;;
34900;SDS011;21112;51.976;5.660;2023-04-01T13:43:15;2.90;;;1.50;;
34900;SDS011;21112;51.976;5.660;2023-04-01T13:45:49;3.53;;;1.48;;
34900;SDS011;21112;51.976;5.660;2023-04-01T13:51:22;3.30;;;1.73;;
34900;SDS011;21112;51.976;5.660;2023-04-01T13:56:53;3.15;;;1.58;;
34900;SDS011;21112;51.976;5.660;2023-04-01T13:59:30;4.22;;;2.00;;
34900;SDS011;21112;51.976;5.660;2023-04-01T14:02:11;4.55;;;1.92;;
34900;SDS011;21112;51.976;5.660;2023-04-01T14:04:43;3.92;;;2.00;;
34900;SDS011;21112;51.976;5.660;2023-04-01T14:07:16;4.78;;;1.70;;
34900;SDS011;21112;51.976;5.660;2023-04-01T14:09:48;3.88;;;1.90;;
34900;SDS011;21112;51.976;5.660;2023-04-01T14:12:26;4.88;;;2.05;;
34900;SDS011;21112;51.976;5.660;2023-04-01T14:15:07;3.78;;;1.98;;
34900;SDS011;21112;51.976;5.660;2023-04-01T14:17:47;3.00;;;1.63;;
34900;SDS011;21112;51.976;5.660;2023-04-01T14:25:58;3.50;;;1.67;;
34900;SDS011;21112;51.976;5.660;2023-04-01T14:33:46;4.85;;;1.92;;
34900;SDS011;21112;51.976;5.660;2023-04-01T14:36:37;4.00;;;2.05;;
34900;SDS011;21112;51.976;5.660;2023-04-01T14:55:28;5.18;;;2.28;;
34900;SDS011;21112;51.976;5.660;2023-04-01T14:58:12;5.32;;;2.30;;
34900;SDS011;21112;51.976;5.660;2023-04-01T15:06:33;4.75;;;1.92;;
34900;SDS011;21112;51.976;5.660;2023-04-01T15:09:09;5.40;;;2.05;;
34900;SDS011;21112;51.976;5.660;2023-04-01T15:11:43;4.35;;;1.98;;
34900;SDS011;21112;51.976;5.660;2023-04-01T15:14:19;4.38;;;1.77;;
34900;SDS011;21112;51.976;5.660;2023-04-01T15:17:03;5.40;;;2.00;;
34900;SDS011;21112;51.976;5.660;2023-04-01T15:19:38;6.43;;;2.47;;
34900;SDS011;21112;51.976;5.660;2023-04-01T15:22:18;3.97;;;1.92;;
34900;SDS011;21112;51.976;5.660;2023-04-01T15:24:56;3.85;;;1.83;;
34900;SDS011;21112;51.976;5.660;2023-04-01T15:27:29;4.75;;;2.00;;
34900;SDS011;21112;51.976;5.660;2023-04-01T15:30:08;4.15;;;1.77;;
34900;SDS011;21112;51.976;5.660;2023-04-01T15:32:50;4.03;;;1.95;;
34900;SDS011;21112;51.976;5.660;2023-04-01T15:35:21;5.13;;;1.98;;
34900;SDS011;21112;51.976;5.660;2023-04-01T15:37:55;4.07;;;1.88;;
34900;SDS011;21112;51.976;5.660;2023-04-01T15:40:27;3.55;;;1.83;;
34900;SDS011;21112;51.976;5.660;2023-04-01T15:43:02;3.67;;;1.52;;
34900;SDS011;21112;51.976;5.660;2023-04-01T15:55:52;4.60;;;2.03;;
34900;SDS011;21112;51.976;5.660;2023-04-01T15:58:29;4.25;;;1.85;;
34900;SDS011;21112;51.976;5.660;2023-04-01T16:01:09;4.05;;;1.70;;
34900;SDS011;21112;51.976;5.660;2023-04-01T16:03:44;5.25;;;1.92;;
34900;SDS011;21112;51.976;5.660;2023-04-01T16:06:17;3.90;;;1.88;;
34900;SDS011;21112;51.976;5.660;2023-04-01T16:11:51;4.38;;;1.90;;
34900;SDS011;21112;51.976;5.660;2023-04-01T16:14:25;4.07;;;2.05;;
34900;SDS011;21112;51.976;5.660;2023-04-01T16:21:44;3.50;;;1.83;;
34900;SDS011;21112;51.976;5.660;2023-04-01T16:31:58;4.18;;;1.92;;
34900;SDS011;21112;51.976;5.660;2023-04-01T16:34:41;4.30;;;1.80;;
34900;SDS011;21112;51.976;5.660;2023-04-01T16:37:13;2.55;;;1.35;;
34900;SDS011;21112;51.976;5.660;2023-04-01T16:39:45;3.10;;;1.70;;
34900;SDS011;21112;51.976;5.660;2023-04-01T16:42:25;5.30;;;2.10;;
34900;SDS011;21112;51.976;5.660;2023-04-01T16:44:59;4.03;;;1.90;;
34900;SDS011;21112;51.976;5.660;2023-04-01T16:47:45;3.33;;;1.83;;
34900;SDS011;21112;51.976;5.660;2023-04-01T16:50:13;3.10;;;1.80;;
34900;SDS011;21112;51.976;5.660;2023-04-01T16:52:48;5.00;;;1.80;;
34900;SDS011;21112;51.976;5.660;2023-04-01T16:55:21;4.10;;;2.05;;
34900;SDS011;21112;51.976;5.660;2023-04-01T16:57:55;3.55;;;1.80;;
34900;SDS011;21112;51.976;5.660;2023-04-01T17:00:24;3.28;;;1.90;;
34900;SDS011;21112;51.976;5.660;2023-04-01T17:02:56;3.47;;;1.77;;
34900;SDS011;21112;51.976;5.660;2023-04-01T17:05:43;4.18;;;1.70;;
34900;SDS011;21112;51.976;5.660;2023-04-01T17:08:15;2.67;;;1.52;;
34900;SDS011;21112;51.976;5.660;2023-04-01T17:13:23;3.45;;;1.55;;
34900;SDS011;21112;51.976;5.660;2023-04-01T17:15:54;4.18;;;2.00;;
34900;SDS011;21112;51.976;5.660;2023-04-01T17:18:30;2.30;;;1.40;;
34900;SDS011;21112;51.976;5.660;2023-04-01T17:21:02;3.05;;;1.77;;
34900;SDS011;21112;51.976;5.660;2023-04-01T17:23:34;2.72;;;1.52;;
34900;SDS011;21112;51.976;5.660;2023-04-01T17:26:09;3.20;;;1.83;;
34900;SDS011;21112;51.976;5.660;2023-04-01T17:29:06;4.50;;;1.90;;
34900;SDS011;21112;51.976;5.660;2023-04-01T17:31:35;5.13;;;2.05;;
34900;SDS011;21112;51.976;5.660;2023-04-01T17:34:22;3.17;;;1.77;;
34900;SDS011;21112;51.976;5.660;2023-04-01T17:37:07;3.30;;;1.80;;
34900;SDS011;21112;51.976;5.660;2023-04-01T17:39:45;4.20;;;1.87;;
34900;SDS011;21112;51.976;5.660;2023-04-01T17:42:16;4.22;;;2.28;;
34900;SDS011;21112;51.976;5.660;2023-04-01T17:44:50;4.20;;;2.15;;
34900;SDS011;21112;51.976;5.660;2023-04-01T17:47:28;4.38;;;2.15;;
34900;SDS011;21112;51.976;5.660;2023-04-01T17:50:04;3.90;;;1.88;;
34900;SDS011;21112;51.976;5.660;2023-04-01T17:52:37;4.47;;;2.38;;
34900;SDS011;21112;51.976;5.660;2023-04-01T17:55:20;4.55;;;2.22;;
34900;SDS011;21112;51.976;5.660;2023-04-01T17:57:51;3.25;;;2.00;;
34900;SDS011;21112;51.976;5.660;2023-04-01T18:00:23;4.30;;;2.30;;
34900;SDS011;21112;51.976;5.660;2023-04-01T18:02:56;4.30;;;2.20;;
34900;SDS011;21112;51.976;5.660;2023-04-01T18:08:18;4.25;;;2.30;;
34900;SDS011;21112;51.976;5.660;2023-04-01T18:10:55;3.88;;;2.08;;
34900;SDS011;21112;51.976;5.660;2023-04-01T18:13:34;4.75;;;2.10;;
34900;SDS011;21112;51.976;5.660;2023-04-01T18:16:09;5.85;;;2.45;;
34900;SDS011;21112;51.976;5.660;2023-04-01T18:18:45;5.00;;;2.40;;
34900;SDS011;21112;51.976;5.660;2023-04-01T18:21:16;4.97;;;2.70;;
34900;SDS011;21112;51.976;5.660;2023-04-01T18:23:51;5.10;;;2.45;;
34900;SDS011;21112;51.976;5.660;2023-04-01T18:26:26;3.95;;;2.13;;
34900;SDS011;21112;51.976;5.660;2023-04-01T18:29:02;5.20;;;2.53;;
34900;SDS011;21112;51.976;5.660;2023-04-01T18:31:36;4.18;;;2.40;;
34900;SDS011;21112;51.976;5.660;2023-04-01T18:34:11;5.57;;;2.40;;
34900;SDS011;21112;51.976;5.660;2023-04-01T18:36:42;4.75;;;2.53;;
34900;SDS011;21112;51.976;5.660;2023-04-01T18:39:12;4.43;;;2.35;;
34900;SDS011;21112;51.976;5.660;2023-04-01T18:41:42;4.43;;;2.60;;
34900;SDS011;21112;51.976;5.660;2023-04-01T18:44:22;3.97;;;2.13;;
34900;SDS011;21112;51.976;5.660;2023-04-01T18:46:51;5.38;;;2.47;;
34900;SDS011;21112;51.976;5.660;2023-04-01T18:49:25;4.70;;;2.30;;
34900;SDS011;21112;51.976;5.660;2023-04-01T18:51:54;4.55;;;2.22;;
34900;SDS011;21112;51.976;5.660;2023-04-01T18:54:24;4.43;;;2.30;;
34900;SDS011;21112;51.976;5.660;2023-04-01T18:56:59;6.05;;;2.03;;
34900;SDS011;21112;51.976;5.660;2023-04-01T19:02:00;3.47;;;2.00;;
34900;SDS011;21112;51.976;5.660;2023-04-01T19:04:30;4.47;;;2.47;;
34900;SDS011;21112;51.976;5.660;2023-04-01T19:06:59;4.88;;;2.60;;
34900;SDS011;21112;51.976;5.660;2023-04-01T19:09:43;4.20;;;2.30;;
34900;SDS011;21112;51.976;5.660;2023-04-01T19:14:52;4.65;;;2.50;;